Aérodrome :







RETROUVEZ-NOUS SUR...

 
LOGIN :

S'inscrire | Disclaimer

   EN    FR    IT 

 









Légende :    VFR   VFR Marginal   IFR   IFR Intensif   IFR Très Intensif
Visi : 
Plafond : 
>= 8 km
>= 3000ft
5 à 8 km
1000 à 3000 ft
1500m à 5 km
500 à 1000 ft
800 à 1500m
200 à 500 ft
< 800m
< 200 ft
Symboles :   Orages  Brouillard  Fortes neiges  Fortes précipitations  Vent > 20 kt






- Altitude de l'aérodrome : 244 ft
- Code IATA : YQB


CYQB - Quebec - Jean Lesage Int.

DERNIER METAR :
  • 221600Z 25012KT 20SM BKN028 BKN150 M02/M07 A2997 RMK SC6AC1 SLP155

METARs EXPIRÉS :
  • 221500Z 25014KT 15SM FEW020 BKN038 M02/M07 A2997 RMK SC1SC5 SLP155
  • 221400Z 25012G18KT 20SM FEW015 BKN037 M03/M07 A2997 RMK SF1SC7 SF TR SLP157

TAF TAF CYQB
Valide du 22 à 12h jusqu'au 23 à 12h UTC


221139Z 2212/2312 24012G22KT P6SM -SN SCT020 BKN040
TEMPO 2212/2218 6SM -SN
FM221800 24015G25KT P6SM -SN SCT020 BKN030
TEMPO 2218/2224 5SM -SN BKN020
FM230000 24012G22KT 6SM -SN OVC020
FM230600 25010G20KT P6SM -SN SCT008 OVC015 RMK NXT FCST BY 221800Z
ATIS : ENG : +1 418-871-6893 FRA : +1 418-871-6895



MET'MAP, la Météo Aéronautique d'un coup d'oeil ! - Copyright ORBIFLY Décembre 2007 - Disclaimer

ORBIFLY MET'MAP TEAM :

Programmation & Développement : Alexandra Zaïnal
Sur une idée originale de : Baudouin d'Aumeries
Assistance à la programmation : Marc-Olivier Méhu
Soutien technique & logistique : Manuel Goepfert

Contact : metmap@orbifly.com




SOURCES & CREDITS :

   NOAA